Argusville, ND

10:15 PM CDT on August 28, 2014 (GMT -0500)
Argusville | Change Station
CLOSE
Current Station
Personal Weather Station
Location: Argusville, ND
Elevation: 899 ft
Nearby Weather Stations

Elev 899 ft 47.05 °N, 97.03 °W | Updated 2 minutes ago

Overcast
Overcast
65.5 °F
Feels Like 65.5 °F
N
0.0
Wind Variable Wind from North
Gusts 0.0 mph

Today
High -- | Low -- °F
--% Chance of Precip.
Yesterday
High -- | Low -- °F
Precip. -- in
6:41 AM 8:14 PM
Waxing Crescent, 11% visible
Pressure 29.86 in
Visibility 10.0 miles
Clouds Few 1700 ft
Few 2300 ft
Scattered Clouds 9500 ft
Dew Point 63 °F
Humidity 91%
Rainfall 0.02 in
Snow Depth Not available.
UV 0 out of 12
Pollen 10.40 out of 12
Air Quality Not available.
Flu Activity Not available.
METAR KFAR 290253Z 14008KT 10SM FEW017 FEW023 SCT095 19/18 A2986 RMK AO2 SLP110 60000 T01940178 58004

More Conditions Fewer Conditions

Pressure 29.86 in
Visibility 10.0 miles
Clouds Few 1700 ft
Few 2300 ft
Scattered Clouds 9500 ft
Dew Point 63 °F
Humidity 91%
Rainfall 0.02 in
Snow Depth Not available.
UV 0 out of 12
Pollen 10.40 out of 12
Air Quality Not available.
Flu Activity Not available.
METAR KFAR 290253Z 14008KT 10SM FEW017 FEW023 SCT095 19/18 A2986 RMK AO2 SLP110 60000 T01940178 58004

More Conditions Fewer Conditions

10-Day Weather Forecast

Almanac

Astronomy

Aug. 28, 2014 Rise Set
Actual Time 6:41 AM CDT 8:14 PM CDT
Civil Twilight 6:09 AM CDT 8:46 PM CDT
Nautical Twilight 5:30 AM CDT 9:25 PM CDT
Astronomical Twilight 4:48 AM CDT 10:07 PM CDT
Moon 9:49 AM CDT (8/28) 9:23 PM CDT (8/28)
Length of Visible Light 14h 37m
Length of Day
13h 33m
Tomorrow will be 3m 14s shorter.
Waxing Crescent, 11% of the Moon is Illuminated
Today
Waxing Crescent
Sep 2
First Quarter
Sep 8
Full
Sep 15
Last Quarter
Sep 24
New

Today's Extremes

State Highs State Lows

Community

WunderPhotos

Upload Photos

1,748,146 photos uploaded!

Nearby

Snow Depth

Station Depth Elevation
No new snow has been reported.

Earthquake Activity

City Distance Mag. Time & Date
No recent earthquake activity has been reported nearby.
Minimum magnitude displayed is 2.5.

Coastal Water Temperatures

Place Temperature
No Stations Reporting

Nearby Weather Stations